createdAt,value
2022-09-30T17:07:23.477Z,3.97
2022-09-30T17:09:52.879Z,4.13
2022-09-30T17:12:20.744Z,4.55
2022-09-30T17:14:49.071Z,4.53
2022-09-30T17:17:16.894Z,4.68
2022-09-30T17:19:44.743Z,5.28
2022-09-30T17:22:12.527Z,5.03
2022-09-30T17:24:41.786Z,5.55
2022-09-30T17:27:09.654Z,6.97
2022-09-30T17:29:41.832Z,6.55
2022-09-30T17:32:10.345Z,6.95
2022-09-30T17:34:38.281Z,4.97
2022-09-30T17:39:39.280Z,5.30
2022-09-30T17:42:30.327Z,6.57
2022-09-30T17:44:58.418Z,6.00
2022-09-30T17:47:26.774Z,5.60
2022-09-30T17:49:55.090Z,6.35
2022-09-30T17:52:23.740Z,6.13
2022-09-30T17:54:52.667Z,6.05
2022-09-30T17:57:22.320Z,7.22
2022-09-30T17:59:50.172Z,6.78
2022-09-30T18:02:18.143Z,6.68
2022-09-30T18:04:46.424Z,7.18
2022-09-30T18:07:14.344Z,6.68
2022-09-30T18:09:42.200Z,8.52
2022-09-30T18:12:10.026Z,7.85
2022-09-30T18:14:39.248Z,6.40
2022-09-30T18:17:07.611Z,7.57
2022-09-30T18:19:36.183Z,6.80
2022-09-30T18:22:04.448Z,8.25
2022-09-30T18:25:01.095Z,7.68
2022-09-30T18:27:33.859Z,7.70
2022-09-30T18:30:04.328Z,8.82
2022-09-30T18:32:32.773Z,6.88
2022-09-30T18:35:00.841Z,8.02
2022-09-30T18:37:33.215Z,7.47
2022-09-30T18:40:01.144Z,8.45
2022-09-30T18:42:30.115Z,9.10
2022-09-30T18:44:57.936Z,7.72
2022-09-30T18:47:27.703Z,9.15
2022-09-30T18:49:55.589Z,7.13
2022-09-30T18:52:23.534Z,10.50
2022-09-30T18:54:51.558Z,10.02
2022-09-30T18:57:19.373Z,10.40
2022-09-30T18:59:47.511Z,9.05
2022-09-30T19:02:20.713Z,8.77
2022-09-30T19:04:50.086Z,9.18
2022-09-30T19:07:20.321Z,8.50
2022-09-30T19:09:48.331Z,8.75
2022-09-30T19:12:17.497Z,9.00
2022-09-30T19:14:45.616Z,8.35
2022-09-30T19:17:13.635Z,9.82
2022-09-30T19:19:45.259Z,9.98
2022-09-30T19:22:14.538Z,9.80
2022-09-30T19:24:43.797Z,9.77
2022-09-30T19:27:12.055Z,10.48
2022-09-30T19:29:40.431Z,8.68
2022-09-30T19:32:09.693Z,8.30
2022-09-30T19:34:37.653Z,8.18
2022-09-30T19:37:06.452Z,7.93
2022-09-30T19:39:45.290Z,8.85
2022-09-30T19:42:16.867Z,8.23
2022-09-30T19:44:44.803Z,8.02
2022-09-30T19:47:12.704Z,8.45
2022-09-30T19:49:40.891Z,9.18
2022-09-30T19:52:18.283Z,8.63
2022-09-30T19:54:51.781Z,8.43
2022-09-30T19:57:19.626Z,8.80
2022-09-30T19:59:47.603Z,8.38
2022-09-30T20:02:15.469Z,9.55
2022-09-30T20:04:45.336Z,9.35
2022-09-30T20:07:14.847Z,8.45
2022-09-30T20:09:43.456Z,10.10
2022-09-30T20:12:12.696Z,7.50
2022-09-30T20:14:58.123Z,7.32
2022-09-30T20:17:26.038Z,8.60
2022-09-30T20:20:11.544Z,8.15
2022-09-30T20:22:39.488Z,7.75
2022-09-30T20:25:07.998Z,8.80
2022-09-30T20:27:37.224Z,8.25
2022-09-30T20:30:05.850Z,9.07
2022-09-30T20:32:33.737Z,9.43
2022-09-30T20:35:01.644Z,8.90
2022-09-30T20:37:29.843Z,10.05
2022-09-30T20:39:57.710Z,8.95
2022-09-30T20:42:28.159Z,9.93
2022-09-30T20:45:03.102Z,9.35
2022-09-30T20:47:31.523Z,8.45
2022-09-30T20:49:59.432Z,9.30
2022-09-30T20:52:27.321Z,8.65
2022-09-30T20:54:55.757Z,9.85
2022-09-30T20:57:23.689Z,9.85
2022-09-30T20:59:51.540Z,10.38
2022-09-30T21:02:27.860Z,9.05
2022-09-30T21:04:57.540Z,9.82
2022-09-30T21:07:25.738Z,8.90
2022-09-30T21:09:53.843Z,9.30
2022-09-30T21:12:21.810Z,8.95
2022-09-30T21:14:49.674Z,8.98
2022-09-30T21:17:17.555Z,9.20
2022-09-30T21:19:46.766Z,9.02
2022-09-30T21:22:14.564Z,9.82
2022-09-30T21:24:42.401Z,8.77
2022-09-30T21:27:10.259Z,8.85
2022-09-30T21:29:38.097Z,9.43
2022-09-30T21:32:06.046Z,9.63
2022-09-30T21:34:34.065Z,9.10
2022-09-30T21:37:03.264Z,9.48
2022-09-30T21:39:31.227Z,9.05
2022-09-30T21:41:59.054Z,8.70
2022-09-30T21:44:26.876Z,9.70
2022-09-30T21:46:54.699Z,9.20
2022-09-30T21:49:24.395Z,9.10
2022-09-30T21:51:52.929Z,9.43
2022-09-30T21:54:23.316Z,9.73
2022-09-30T21:56:51.453Z,9.15
2022-09-30T21:59:19.294Z,9.38
2022-09-30T22:01:47.736Z,8.35
2022-09-30T22:04:15.543Z,9.38
2022-09-30T22:06:44.403Z,9.63
2022-09-30T22:09:12.403Z,9.18
2022-09-30T22:11:43.794Z,8.82
2022-09-30T22:16:39.627Z,9.10
2022-09-30T22:19:09.169Z,8.40
2022-09-30T22:21:38.133Z,8.75
2022-09-30T22:24:07.973Z,8.27
2022-09-30T22:26:37.027Z,8.57
2022-09-30T22:29:10.374Z,8.23
2022-09-30T22:31:39.461Z,9.32
2022-09-30T22:34:26.195Z,9.30
2022-09-30T22:37:11.820Z,8.77
2022-09-30T22:39:39.648Z,9.70
2022-09-30T22:42:07.553Z,9.38
2022-09-30T22:44:38.117Z,8.93
2022-09-30T22:47:06.345Z,9.20
2022-09-30T22:49:34.221Z,8.35
2022-09-30T22:52:03.657Z,8.35
2022-09-30T22:54:31.698Z,8.48
2022-09-30T22:57:00.050Z,8.10
2022-09-30T22:59:28.978Z,8.48
2022-09-30T23:01:58.797Z,8.73
2022-09-30T23:04:27.006Z,8.65
2022-09-30T23:06:56.316Z,9.15
2022-09-30T23:09:24.471Z,9.02
2022-09-30T23:11:54.370Z,9.23
2022-09-30T23:14:22.918Z,8.05
2022-09-30T23:16:51.395Z,8.20
2022-09-30T23:19:20.922Z,9.57
2022-09-30T23:21:48.758Z,8.82
2022-09-30T23:24:16.605Z,8.90
2022-09-30T23:26:44.470Z,10.32
2022-09-30T23:29:13.707Z,9.43
2022-09-30T23:31:41.970Z,9.27
2022-09-30T23:34:10.407Z,8.60
2022-09-30T23:36:39.556Z,9.40
2022-09-30T23:39:12.432Z,9.23
2022-09-30T23:41:40.790Z,7.78
2022-09-30T23:44:09.953Z,8.45
2022-09-30T23:46:37.774Z,8.43
2022-09-30T23:49:05.596Z,9.98
2022-09-30T23:51:34.299Z,10.15
2022-09-30T23:54:03.810Z,9.27
2022-09-30T23:56:32.155Z,9.43
2022-09-30T23:59:00.051Z,9.30
